Time;durP1;ratioP1;P1;durP2;ratioP2;P2;SDS_P1;SDS_P2;PMS_P1;PMS_P2;Temp;Humidity;BMP_temperature;BMP_pressure;BME280_temperature;BME280_humidity;BME280_pressure;Samples;Min_cycle;Max_cycle;Signal;HPM_P1;HPM_P2
2022/11/13 00:00:45;;;;;;;11.27;9.13;;;5.70;99.90;;;;;;5008215;28;20509;-43
2022/11/13 00:03:31;;;;;;;11.10;9.23;;;5.70;99.90;;;;;;5018732;28;20227;-44
2022/11/13 00:06:19;;;;;;;11.73;9.20;;;5.60;99.90;;;;;;5018659;28;20207;-44
2022/11/13 00:09:04;;;;;;;11.57;8.77;;;5.70;99.90;;;;;;5026078;28;20215;-43
2022/11/13 00:11:50;;;;;;;11.63;9.33;;;5.70;99.90;;;;;;5014271;28;20215;-47
2022/11/13 00:14:36;;;;;;;14.20;9.17;;;5.70;99.90;;;;;;5023143;28;20235;-42
2022/11/13 00:17:22;;;;;;;11.70;9.43;;;5.70;99.90;;;;;;5012130;28;20564;-42
2022/11/13 00:20:08;;;;;;;12.40;8.80;;;5.60;99.90;;;;;;5007822;28;20280;-47
2022/11/13 00:22:55;;;;;;;10.27;9.27;;;5.60;99.90;;;;;;5022889;28;20219;-42
2022/11/13 00:25:40;;;;;;;9.30;8.33;;;5.60;99.90;;;;;;5022799;28;20215;-43
2022/11/13 00:28:26;;;;;;;10.77;8.43;;;5.70;99.90;;;;;;5014366;28;20270;-43
2022/11/13 00:31:13;;;;;;;11.90;9.60;;;5.70;99.90;;;;;;5011859;28;20631;-41
2022/11/13 00:33:59;;;;;;;11.70;8.83;;;5.70;99.90;;;;;;5023441;28;20630;-45
2022/11/13 00:36:44;;;;;;;11.77;9.47;;;5.70;99.90;;;;;;5015165;28;20246;-43
2022/11/13 00:39:31;;;;;;;10.90;9.30;;;5.70;99.90;;;;;;5024570;28;20299;-44
2022/11/13 00:42:17;;;;;;;10.53;8.43;;;5.60;99.90;;;;;;5025231;28;20268;-46
2022/11/13 00:45:07;;;;;;;10.63;7.97;;;5.60;99.90;;;;;;5018433;28;20273;-45
2022/11/13 00:47:53;;;;;;;9.63;8.47;;;5.60;99.90;;;;;;5008197;28;20242;-49
2022/11/13 00:50:38;;;;;;;12.63;9.47;;;5.60;99.90;;;;;;5012081;28;20319;-42
2022/11/13 00:53:24;;;;;;;10.27;9.17;;;5.60;99.90;;;;;;5023046;28;20230;-41
2022/11/13 00:56:11;;;;;;;11.90;9.27;;;5.60;99.90;;;;;;5025576;28;20543;-45
2022/11/13 00:58:56;;;;;;;10.73;8.73;;;5.60;99.90;;;;;;5014432;28;20215;-43
2022/11/13 01:01:42;;;;;;;12.17;9.27;;;5.60;99.90;;;;;;5020805;28;20218;-53
2022/11/13 01:04:28;;;;;;;10.67;9.27;;;5.60;99.90;;;;;;5009625;28;20337;-54
2022/11/13 01:07:14;;;;;;;11.40;8.70;;;5.60;99.90;;;;;;5019116;28;20210;-56
2022/11/13 01:10:00;;;;;;;14.63;10.07;;;5.60;99.90;;;;;;5017484;28;20545;-54
2022/11/13 01:12:47;;;;;;;11.17;9.30;;;5.50;99.90;;;;;;5017001;28;20268;-52
2022/11/13 01:15:33;;;;;;;14.17;9.83;;;5.50;99.90;;;;;;5015885;28;20585;-53
2022/11/13 01:18:19;;;;;;;14.07;10.43;;;5.50;99.90;;;;;;5024927;28;20891;-55
2022/11/13 01:21:06;;;;;;;13.33;10.17;;;5.40;99.90;;;;;;5015822;28;20353;-51
2022/11/13 01:23:53;;;;;;;14.13;9.27;;;5.50;99.90;;;;;;5021951;28;20366;-53
2022/11/13 01:26:39;;;;;;;12.57;10.20;;;5.50;99.90;;;;;;5021970;28;20761;-53
2022/11/13 01:29:26;;;;;;;13.40;9.53;;;5.40;99.90;;;;;;5023990;28;20693;-52
2022/11/13 01:32:12;;;;;;;13.43;10.30;;;5.40;99.90;;;;;;5019333;28;20254;-52
2022/11/13 01:34:58;;;;;;;13.30;10.30;;;5.40;99.90;;;;;;5008276;28;20296;-53
2022/11/13 01:37:43;;;;;;;11.63;10.20;;;5.40;99.90;;;;;;5014248;28;20254;-54
2022/11/13 01:40:29;;;;;;;14.03;9.90;;;5.40;99.90;;;;;;5023602;28;20222;-52
2022/11/13 01:43:24;;;;;;;12.27;9.37;;;5.40;99.90;;;;;;5024242;28;20329;-51
2022/11/13 01:46:25;;;;;;;11.87;10.33;;;5.40;99.90;;;;;;5013898;28;20219;-50
2022/11/13 01:49:28;;;;;;;11.73;9.80;;;5.30;99.90;;;;;;5017722;28;20587;-55
2022/11/13 01:52:17;;;;;;;14.53;10.43;;;5.30;99.90;;;;;;5009335;28;20222;-54
2022/11/13 01:55:07;;;;;;;12.83;10.20;;;5.30;99.90;;;;;;5024032;28;20262;-51
2022/11/13 01:57:53;;;;;;;13.60;10.50;;;5.30;99.90;;;;;;5021687;28;20374;-52
2022/11/13 02:00:39;;;;;;;12.13;9.83;;;5.30;99.90;;;;;;5021298;28;20234;-55
2022/11/13 02:03:26;;;;;;;12.03;9.50;;;5.30;99.90;;;;;;5016543;28;20234;-55
2022/11/13 02:06:13;;;;;;;12.17;9.93;;;5.30;99.90;;;;;;5008216;28;20265;-54
2022/11/13 02:08:59;;;;;;;13.23;9.20;;;5.30;99.90;;;;;;5014025;28;20349;-53
2022/11/13 02:11:46;;;;;;;11.80;10.03;;;5.30;99.90;;;;;;5016637;28;20917;-49
2022/11/13 02:14:33;;;;;;;10.57;9.47;;;5.30;99.90;;;;;;5022305;28;20231;-54
2022/11/13 02:17:23;;;;;;;11.83;10.47;;;5.20;99.90;;;;;;5024341;28;20234;-51
2022/11/13 02:20:11;;;;;;;13.73;9.93;;;5.30;99.90;;;;;;5015791;28;20293;-52
2022/11/13 02:23:02;;;;;;;13.67;9.73;;;5.30;99.90;;;;;;5015044;28;20215;-56
2022/11/13 02:25:52;;;;;;;14.33;10.03;;;5.20;99.90;;;;;;5000132;28;20207;-50
2022/11/13 02:28:38;;;;;;;15.37;10.00;;;5.20;99.90;;;;;;5021226;28;20219;-53
2022/11/13 02:31:23;;;;;;;12.10;9.27;;;5.20;99.90;;;;;;5023887;28;20210;-51
2022/11/13 02:34:09;;;;;;;11.40;9.80;;;5.10;99.90;;;;;;5017181;28;20598;-52
2022/11/13 02:36:55;;;;;;;12.50;9.97;;;5.20;99.90;;;;;;5004704;28;20332;-55
2022/11/13 02:39:41;;;;;;;11.97;10.00;;;5.30;99.90;;;;;;5013267;28;20231;-55
2022/11/13 02:42:28;;;;;;;15.57;10.20;;;5.10;99.90;;;;;;5022250;28;20203;-56
2022/11/13 02:45:13;;;;;;;12.90;9.90;;;5.30;99.90;;;;;;5019433;28;20342;-51
2022/11/13 02:48:00;;;;;;;12.80;9.93;;;5.20;99.90;;;;;;5022081;28;20327;-53
2022/11/13 02:50:46;;;;;;;11.17;9.93;;;5.10;99.90;;;;;;5012983;28;20211;-48
2022/11/13 02:53:33;;;;;;;12.17;10.50;;;5.10;99.90;;;;;;5003040;28;20741;-55
2022/11/13 02:56:18;;;;;;;15.97;10.43;;;5.10;99.90;;;;;;5023071;28;20764;-51
2022/11/13 02:59:05;;;;;;;10.90;9.73;;;5.10;99.90;;;;;;5022015;28;20222;-53
2022/11/13 03:01:51;;;;;;;16.03;10.23;;;5.10;99.90;;;;;;5020141;28;20285;-51
2022/11/13 03:04:36;;;;;;;15.00;10.37;;;5.10;99.90;;;;;;5015718;28;20282;-55
2022/11/13 03:07:24;;;;;;;14.83;9.63;;;5.10;99.90;;;;;;4998568;28;20211;-54
2022/11/13 03:10:11;;;;;;;14.30;9.97;;;5.00;99.90;;;;;;5015875;28;20234;-49
2022/11/13 03:12:58;;;;;;;12.07;10.07;;;5.00;99.90;;;;;;5020452;28;20198;-50
2022/11/13 03:15:45;;;;;;;12.20;10.13;;;5.00;99.90;;;;;;5019173;28;20211;-55
2022/11/13 03:18:30;;;;;;;14.13;10.17;;;5.00;99.90;;;;;;5021600;28;20226;-55
2022/11/13 03:21:16;;;;;;;18.07;12.80;;;5.00;99.90;;;;;;5015913;28;20243;-49
2022/11/13 03:24:02;;;;;;;14.47;11.43;;;5.10;99.90;;;;;;5007093;28;20235;-54
2022/11/13 03:26:48;;;;;;;14.63;11.03;;;5.10;99.90;;;;;;5001058;28;20269;-53
2022/11/13 03:29:34;;;;;;;18.57;11.87;;;5.10;99.90;;;;;;5017858;28;20330;-55
2022/11/13 03:32:21;;;;;;;14.20;11.40;;;5.20;99.90;;;;;;5022950;28;20234;-53
2022/11/13 03:35:08;;;;;;;15.90;12.30;;;5.20;99.90;;;;;;5022569;28;20241;-54
2022/11/13 03:37:53;;;;;;;14.77;11.20;;;5.20;99.90;;;;;;5003396;28;20235;-52
2022/11/13 03:40:39;;;;;;;19.47;12.43;;;5.30;99.90;;;;;;4999170;28;20754;-55
2022/11/13 03:43:25;;;;;;;17.30;13.07;;;5.40;99.90;;;;;;5011893;28;20229;-54
2022/11/13 03:46:11;;;;;;;17.37;11.50;;;5.40;99.90;;;;;;5023181;28;20218;-53
2022/11/13 03:48:58;;;;;;;19.77;13.40;;;5.40;99.90;;;;;;5020962;28;20215;-55
2022/11/13 03:51:44;;;;;;;20.10;13.07;;;5.40;99.90;;;;;;5019038;28;20505;-50
2022/11/13 03:54:30;;;;;;;19.70;13.13;;;5.40;99.90;;;;;;5008091;28;20388;-55
2022/11/13 03:57:15;;;;;;;22.93;13.33;;;5.40;99.90;;;;;;5008110;28;20723;-54
2022/11/13 04:00:01;;;;;;;19.90;13.10;;;5.50;99.90;;;;;;5021808;28;20219;-52
2022/11/13 04:02:47;;;;;;;23.87;13.83;;;5.50;99.90;;;;;;5018120;28;20736;-54
2022/11/13 04:05:34;;;;;;;18.77;12.83;;;5.50;99.90;;;;;;5020979;28;20206;-54
2022/11/13 04:08:20;;;;;;;16.00;11.57;;;5.50;99.90;;;;;;5015806;28;20695;-55
2022/11/13 04:11:07;;;;;;;16.43;11.93;;;5.50;99.90;;;;;;5010746;28;20281;-51
2022/11/13 04:13:53;;;;;;;14.23;12.00;;;5.40;99.90;;;;;;5018036;28;20940;-53
2022/11/13 04:16:39;;;;;;;15.53;12.60;;;5.40;99.90;;;;;;5023490;28;20591;-55
2022/11/13 04:19:24;;;;;;;18.43;12.13;;;5.40;99.90;;;;;;5026564;28;20207;-55
2022/11/13 04:22:12;;;;;;;14.10;11.03;;;5.40;99.90;;;;;;5026256;28;20219;-53
2022/11/13 04:24:58;;;;;;;18.70;12.17;;;5.40;99.90;;;;;;5021061;28;20239;-53
2022/11/13 04:27:44;;;;;;;18.83;11.80;;;5.30;99.90;;;;;;5000499;28;20223;-53
2022/11/13 04:30:29;;;;;;;18.40;11.93;;;5.40;99.90;;;;;;5011453;28;20214;-54
2022/11/13 04:33:15;;;;;;;17.40;12.07;;;5.30;99.90;;;;;;5025438;28;20241;-53
2022/11/13 04:36:01;;;;;;;18.90;11.77;;;5.30;99.90;;;;;;5025015;28;20827;-54
2022/11/13 04:38:48;;;;;;;15.20;11.93;;;5.30;99.90;;;;;;5014482;28;20223;-52
2022/11/13 04:44:37;;;;;;;15.73;11.30;;;5.20;99.90;;;;;;5014513;28;20265;-55
2022/11/13 04:47:22;;;;;;;16.67;11.83;;;5.20;99.90;;;;;;5026231;28;20691;-55
2022/11/13 04:50:08;;;;;;;16.10;11.50;;;5.20;99.90;;;;;;5026062;28;20211;-54
2022/11/13 04:52:54;;;;;;;15.27;11.73;;;5.20;99.90;;;;;;5022532;28;20230;-50
2022/11/13 04:55:42;;;;;;;16.67;11.63;;;5.20;99.90;;;;;;5007405;28;20348;-55
2022/11/13 04:58:27;;;;;;;16.30;10.80;;;5.10;99.90;;;;;;5005881;28;20226;-55
2022/11/13 05:01:13;;;;;;;14.60;11.50;;;5.10;99.90;;;;;;5022627;28;20323;-55
2022/11/13 05:03:58;;;;;;;14.33;11.27;;;5.10;99.90;;;;;;5022518;28;20231;-52
2022/11/13 05:06:44;;;;;;;17.20;11.90;;;5.00;99.90;;;;;;5017459;28;20337;-55
2022/11/13 05:09:30;;;;;;;16.37;10.60;;;5.10;99.90;;;;;;5021178;28;20266;-57
2022/11/13 05:12:17;;;;;;;18.63;11.17;;;5.00;99.90;;;;;;5017609;28;20234;-51
2022/11/13 05:15:04;;;;;;;16.20;11.33;;;5.00;99.90;;;;;;5014733;28;20239;-54
2022/11/13 05:17:50;;;;;;;15.47;10.17;;;5.00;99.90;;;;;;5022057;28;20238;-52
2022/11/13 05:20:36;;;;;;;15.90;11.33;;;5.00;99.90;;;;;;5022796;28;20287;-47
2022/11/13 05:23:21;;;;;;;15.17;10.50;;;4.90;99.90;;;;;;5024498;28;20246;-48
2022/11/13 05:26:12;;;;;;;16.93;11.57;;;4.90;99.90;;;;;;5014152;28;20243;-48
2022/11/13 05:29:00;;;;;;;16.87;11.83;;;4.80;99.90;;;;;;5006805;28;20218;-48
2022/11/13 05:31:46;;;;;;;17.90;11.50;;;4.80;99.90;;;;;;5013410;28;20214;-45
2022/11/13 05:34:31;;;;;;;17.40;12.10;;;4.90;99.90;;;;;;5022841;28;20588;-49
2022/11/13 05:37:17;;;;;;;19.17;12.33;;;5.00;99.90;;;;;;5021756;28;20282;-48
2022/11/13 05:40:04;;;;;;;16.90;12.23;;;5.00;99.90;;;;;;5024110;28;20576;-47
2022/11/13 05:42:50;;;;;;;21.23;12.83;;;5.00;99.90;;;;;;5013145;28;20357;-46
2022/11/13 05:45:38;;;;;;;19.43;12.97;;;5.00;99.90;;;;;;5002541;28;20215;-49
2022/11/13 05:48:24;;;;;;;16.23;11.27;;;5.00;99.90;;;;;;5018223;28;20215;-47
2022/11/13 05:51:12;;;;;;;20.87;12.13;;;5.00;99.90;;;;;;5024600;28;20219;-49
2022/11/13 05:53:59;;;;;;;18.90;12.43;;;5.00;99.90;;;;;;5022521;28;20226;-48
2022/11/13 05:56:44;;;;;;;22.27;14.33;;;5.00;99.90;;;;;;5012516;28;20220;-47
2022/11/13 05:59:30;;;;;;;21.70;12.97;;;5.00;99.90;;;;;;5008161;28;20533;-45
2022/11/13 06:02:17;;;;;;;22.17;13.80;;;5.00;99.90;;;;;;5016539;28;20207;-44
2022/11/13 06:05:03;;;;;;;21.73;14.23;;;5.10;99.90;;;;;;5013175;28;20235;-44
2022/11/13 06:07:49;;;;;;;21.00;13.07;;;5.10;99.90;;;;;;5015283;28;20818;-45
2022/11/13 06:10:35;;;;;;;19.17;13.67;;;5.10;99.90;;;;;;5016902;28;20215;-47
2022/11/13 06:13:21;;;;;;;24.07;14.67;;;5.10;99.90;;;;;;5009544;28;20247;-44
2022/11/13 06:16:09;;;;;;;19.77;14.03;;;5.10;99.90;;;;;;4980034;28;20223;-46
2022/11/13 06:18:57;;;;;;;21.57;14.30;;;5.10;99.90;;;;;;5006846;28;20227;-44
2022/11/13 06:21:43;;;;;;;21.60;13.70;;;5.10;99.90;;;;;;5005488;28;20230;-42
2022/11/13 06:24:28;;;;;;;19.83;13.50;;;5.10;99.90;;;;;;5013465;28;20324;-44
2022/11/13 06:27:14;;;;;;;24.00;14.63;;;5.10;99.90;;;;;;5007148;28;20239;-46
2022/11/13 06:30:00;;;;;;;18.63;13.17;;;5.00;99.90;;;;;;5000809;28;20219;-47
2022/11/13 06:32:51;;;;;;;21.47;13.43;;;5.00;99.90;;;;;;4997911;28;20257;-46
2022/11/13 06:35:38;;;;;;;20.27;13.30;;;5.00;99.90;;;;;;5005445;28;20227;-44
2022/11/13 06:38:24;;;;;;;18.77;13.57;;;5.00;99.90;;;;;;5002338;28;20281;-43
2022/11/13 06:41:12;;;;;;;23.20;14.30;;;5.00;99.90;;;;;;5014630;28;20249;-44
2022/11/13 06:43:58;;;;;;;23.37;13.80;;;5.10;99.90;;;;;;5010160;28;20265;-49
2022/11/13 06:46:44;;;;;;;20.60;13.77;;;5.00;99.90;;;;;;5000800;28;20235;-44
2022/11/13 06:49:29;;;;;;;22.67;14.47;;;5.10;99.90;;;;;;5008793;28;20971;-45
2022/11/13 06:52:16;;;;;;;23.60;14.53;;;5.10;99.90;;;;;;5007411;28;20230;-45
2022/11/13 06:55:03;;;;;;;21.37;13.83;;;5.10;99.90;;;;;;5011505;28;20243;-47
2022/11/13 06:57:48;;;;;;;22.70;15.13;;;5.10;99.90;;;;;;5023087;28;20246;-45
2022/11/13 07:00:34;;;;;;;17.37;12.87;;;5.10;99.90;;;;;;4989353;28;20215;-46
2022/11/13 07:03:23;;;;;;;19.97;13.87;;;5.20;99.90;;;;;;5005178;28;20282;-49
2022/11/13 07:06:12;;;;;;;22.07;13.73;;;5.20;99.90;;;;;;5012019;28;20219;-44
2022/11/13 07:08:59;;;;;;;20.70;14.27;;;5.20;99.90;;;;;;5013785;28;20656;-44
2022/11/13 07:11:44;;;;;;;18.97;13.93;;;5.20;99.90;;;;;;5011721;28;21147;-50
2022/11/13 07:14:30;;;;;;;23.87;14.10;;;5.20;99.90;;;;;;5011331;28;20565;-46
2022/11/13 07:17:15;;;;;;;18.73;13.30;;;5.20;99.90;;;;;;5001613;28;20255;-44
2022/11/13 07:20:01;;;;;;;24.70;14.47;;;5.30;99.90;;;;;;5010812;28;20215;-52
2022/11/13 07:22:46;;;;;;;23.53;15.47;;;5.30;99.90;;;;;;5001967;28;20212;-45
2022/11/13 07:25:34;;;;;;;20.87;14.77;;;5.30;99.90;;;;;;5003519;28;20215;-46
2022/11/13 07:28:20;;;;;;;21.67;13.73;;;5.30;99.90;;;;;;5007874;28;20203;-43
2022/11/13 07:31:07;;;;;;;23.40;15.63;;;5.30;99.90;;;;;;4998054;28;20265;-46
2022/11/13 07:33:52;;;;;;;20.27;13.07;;;5.30;99.90;;;;;;5003931;28;20312;-45
2022/11/13 07:36:38;;;;;;;23.53;14.10;;;5.40;99.90;;;;;;5000604;28;20235;-46
2022/11/13 07:39:24;;;;;;;21.30;14.43;;;5.40;99.90;;;;;;5011540;28;20227;-46
2022/11/13 07:42:12;;;;;;;25.27;15.13;;;5.50;99.90;;;;;;5012971;28;20357;-49
2022/11/13 07:44:57;;;;;;;25.67;15.03;;;5.60;99.90;;;;;;5018411;28;20581;-51
2022/11/13 07:47:43;;;;;;;24.47;15.17;;;5.60;99.90;;;;;;5000689;28;20226;-46
2022/11/13 07:50:31;;;;;;;31.63;16.90;;;5.70;99.90;;;;;;5008218;28;20614;-48
2022/11/13 07:53:17;;;;;;;26.53;15.83;;;5.80;99.90;;;;;;5013353;28;20365;-50
2022/11/13 07:56:03;;;;;;;30.47;15.67;;;5.80;99.90;;;;;;5013237;28;20882;-47
2022/11/13 07:58:50;;;;;;;29.97;16.17;;;5.90;99.90;;;;;;5013831;28;20357;-45
2022/11/13 08:01:37;;;;;;;26.77;15.80;;;5.90;99.90;;;;;;5011506;28;20207;-49
2022/11/13 08:04:22;;;;;;;30.90;17.00;;;6.00;99.90;;;;;;5006283;28;20238;-46
2022/11/13 08:07:08;;;;;;;30.00;17.60;;;6.10;99.90;;;;;;5024230;28;20203;-46
2022/11/13 08:09:54;;;;;;;27.47;17.07;;;6.20;99.90;;;;;;5012855;28;20569;-47
2022/11/13 08:12:39;;;;;;;30.13;17.10;;;6.20;99.90;;;;;;5007265;28;20259;-47
2022/11/13 08:15:27;;;;;;;34.73;17.17;;;6.30;99.90;;;;;;5019703;28;20301;-45
2022/11/13 08:18:12;;;;;;;31.53;17.23;;;6.40;99.90;;;;;;5008252;28;20231;-45
2022/11/13 08:21:01;;;;;;;31.30;17.40;;;6.40;99.90;;;;;;5009748;28;20332;-49
2022/11/13 08:23:46;;;;;;;39.37;18.47;;;6.50;99.90;;;;;;5007068;28;20235;-47
2022/11/13 08:26:32;;;;;;;30.40;16.73;;;6.60;99.90;;;;;;5022246;28;20805;-45
2022/11/13 08:29:18;;;;;;;30.77;17.60;;;6.60;99.90;;;;;;5014410;28;20206;-48
2022/11/13 08:32:05;;;;;;;35.17;17.63;;;6.70;99.90;;;;;;5004096;28;20264;-46
2022/11/13 08:34:51;;;;;;;30.83;17.43;;;6.80;99.90;;;;;;5011733;28;20841;-47
2022/11/13 08:37:36;;;;;;;30.00;18.07;;;6.80;99.90;;;;;;4991510;28;20954;-49
2022/11/13 08:40:22;;;;;;;35.67;18.57;;;6.90;99.90;;;;;;5014837;28;20296;-48
2022/11/13 08:43:08;;;;;;;39.50;20.50;;;6.90;99.90;;;;;;5017296;28;20210;-46
2022/11/13 08:45:54;;;;;;;31.03;17.47;;;7.00;99.90;;;;;;5019153;28;20257;-45
2022/11/13 08:48:41;;;;;;;32.00;17.03;;;7.00;99.90;;;;;;5004060;28;20219;-46
2022/11/13 08:51:27;;;;;;;35.43;18.07;;;7.10;99.90;;;;;;5009521;28;20223;-45
2022/11/13 08:54:13;;;;;;;31.57;17.13;;;7.10;99.90;;;;;;5015962;28;20281;-44
2022/11/13 08:56:59;;;;;;;35.50;19.70;;;7.10;99.90;;;;;;5020670;28;20203;-45
2022/11/13 08:59:44;;;;;;;33.03;18.73;;;7.20;99.90;;;;;;5008598;28;20235;-47
2022/11/13 09:02:30;;;;;;;37.27;18.67;;;7.20;99.90;;;;;;5017820;28;20284;-52
2022/11/13 09:05:17;;;;;;;33.63;18.40;;;7.30;99.90;;;;;;5012114;28;20288;-48
2022/11/13 09:08:05;;;;;;;31.03;17.60;;;7.30;99.90;;;;;;5000746;28;20204;-47
2022/11/13 09:10:51;;;;;;;31.30;17.07;;;7.40;99.90;;;;;;5003730;28;20216;-46
2022/11/13 09:13:37;;;;;;;30.20;17.10;;;7.40;99.90;;;;;;5021958;28;20230;-48
2022/11/13 09:16:22;;;;;;;29.73;17.83;;;7.40;99.90;;;;;;5014427;28;20222;-46
2022/11/13 09:19:08;;;;;;;35.47;17.53;;;7.40;99.90;;;;;;5015783;28;20234;-45
2022/11/13 09:21:56;;;;;;;33.73;18.57;;;7.50;99.90;;;;;;4996290;28;20223;-47
2022/11/13 09:24:42;;;;;;;30.90;16.97;;;7.50;99.90;;;;;;5005597;28;20264;-47
2022/11/13 09:27:28;;;;;;;28.73;17.40;;;7.50;99.90;;;;;;5008925;28;20211;-46
2022/11/13 09:30:14;;;;;;;33.00;17.97;;;7.60;99.90;;;;;;5012799;28;20214;-51
2022/11/13 09:33:01;;;;;;;29.40;18.60;;;7.60;99.90;;;;;;4998957;28;20220;-50
2022/11/13 09:35:46;;;;;;;33.40;17.87;;;7.60;99.90;;;;;;5009923;28;20679;-47
2022/11/13 09:38:33;;;;;;;29.20;16.33;;;7.60;99.90;;;;;;5009104;28;20259;-47
2022/11/13 09:41:22;;;;;;;27.13;17.43;;;7.60;99.90;;;;;;5018688;28;20807;-48
2022/11/13 09:44:15;;;;;;;27.17;15.90;;;7.60;99.90;;;;;;5007148;28;20255;-45
2022/11/13 09:47:07;;;;;;;27.20;15.70;;;7.60;99.90;;;;;;5007645;28;20207;-47
2022/11/13 09:49:59;;;;;;;28.83;17.77;;;7.60;99.90;;;;;;5010372;28;20690;-47
2022/11/13 09:52:46;;;;;;;30.53;16.50;;;7.70;99.90;;;;;;5002740;28;20301;-49
2022/11/13 09:55:40;;;;;;;26.03;15.80;;;7.70;99.90;;;;;;5015284;28;20207;-45
2022/11/13 09:58:35;;;;;;;26.23;17.40;;;7.70;99.90;;;;;;5011166;28;20222;-45
2022/11/13 10:01:26;;;;;;;25.43;16.63;;;7.70;99.90;;;;;;5016938;28;20246;-45
2022/11/13 10:04:15;;;;;;;28.80;16.67;;;7.80;99.90;;;;;;5009038;28;20230;-47
2022/11/13 10:07:19;;;;;;;26.90;16.90;;;7.80;99.90;;;;;;4998085;28;20210;-45
2022/11/13 10:10:25;;;;;;;26.77;16.97;;;7.90;99.90;;;;;;5010518;28;20214;-46
2022/11/13 10:13:15;;;;;;;24.67;16.30;;;7.90;99.90;;;;;;5002822;28;20247;-47
2022/11/13 10:16:06;;;;;;;26.23;16.10;;;7.90;99.90;;;;;;5007961;28;20973;-45
2022/11/13 10:18:55;;;;;;;23.83;15.03;;;7.90;99.90;;;;;;5011941;28;20216;-48
2022/11/13 10:21:46;;;;;;;24.07;15.47;;;7.90;99.90;;;;;;5018143;28;20214;-46
2022/11/13 10:24:39;;;;;;;23.50;15.93;;;7.90;99.90;;;;;;4999936;28;20258;-45
2022/11/13 10:27:25;;;;;;;21.77;15.43;;;7.90;99.90;;;;;;5018737;28;20327;-46
2022/11/13 10:30:17;;;;;;;27.17;16.57;;;7.90;99.90;;;;;;5008935;28;20210;-46
2022/11/13 10:33:07;;;;;;;24.90;16.53;;;7.90;99.90;;;;;;5010913;28;20208;-47
2022/11/13 10:35:58;;;;;;;24.43;16.53;;;7.90;99.90;;;;;;5016343;28;20214;-46
2022/11/13 10:38:49;;;;;;;26.20;17.13;;;7.90;99.90;;;;;;5010037;28;20234;-48
2022/11/13 10:41:46;;;;;;;32.60;18.33;;;7.90;99.90;;;;;;5006206;28;20208;-46
2022/11/13 10:44:35;;;;;;;28.20;17.87;;;7.90;99.90;;;;;;5007506;28;20230;-44
2022/11/13 10:47:23;;;;;;;24.73;16.97;;;7.90;99.90;;;;;;5008111;28;20579;-48
2022/11/13 10:50:12;;;;;;;27.83;17.17;;;7.90;99.90;;;;;;4997209;28;20364;-48
2022/11/13 10:52:58;;;;;;;30.30;17.10;;;8.00;99.90;;;;;;5018249;28;20263;-47
2022/11/13 10:55:45;;;;;;;37.13;18.30;;;8.00;99.90;;;;;;4999101;28;20730;-44
2022/11/13 10:58:32;;;;;;;33.10;17.37;;;8.00;99.90;;;;;;5013082;28;20220;-49
2022/11/13 11:01:22;;;;;;;31.70;17.47;;;8.00;99.90;;;;;;4993439;28;20214;-47
2022/11/13 11:04:13;;;;;;;33.50;18.40;;;8.10;99.90;;;;;;5003265;28;20302;-48
2022/11/13 11:07:11;;;;;;;28.53;18.10;;;8.00;99.90;;;;;;5008736;28;20214;-51
2022/11/13 11:09:57;;;;;;;26.57;16.70;;;8.10;99.90;;;;;;5001209;28;20766;-53
2022/11/13 11:12:52;;;;;;;31.93;16.83;;;8.10;99.90;;;;;;5009721;28;20222;-51
2022/11/13 11:15:45;;;;;;;31.13;17.47;;;8.10;99.90;;;;;;5005718;28;20253;-51
2022/11/13 11:18:36;;;;;;;68.53;21.70;;;8.20;99.90;;;;;;5007300;28;20592;-51
2022/11/13 11:21:27;;;;;;;42.63;18.07;;;8.20;99.90;;;;;;5004005;28;20301;-47
2022/11/13 11:24:19;;;;;;;23.77;15.20;;;8.20;99.90;;;;;;5014941;28;20226;-50
2022/11/13 11:27:08;;;;;;;26.20;15.13;;;8.20;99.90;;;;;;4990147;28;20290;-54
2022/11/13 11:30:03;;;;;;;24.23;15.67;;;8.20;99.90;;;;;;5008680;28;20203;-53
2022/11/13 11:32:56;;;;;;;27.50;15.70;;;8.30;99.90;;;;;;5012054;28;20732;-53
2022/11/13 11:35:45;;;;;;;24.33;15.80;;;8.30;99.90;;;;;;5010594;28;20219;-47
2022/11/13 11:38:37;;;;;;;24.63;15.10;;;8.20;99.90;;;;;;5012972;28;20267;-52
2022/11/13 11:41:32;;;;;;;37.77;16.90;;;8.20;99.90;;;;;;4986804;28;20227;-51
2022/11/13 11:44:24;;;;;;;29.77;15.30;;;8.30;99.90;;;;;;5007316;28;21000;-48
2022/11/13 11:47:15;;;;;;;24.07;14.10;;;8.30;99.90;;;;;;5003115;28;20254;-46
2022/11/13 11:50:01;;;;;;;23.17;14.87;;;8.30;99.90;;;;;;5016914;28;20208;-51
2022/11/13 11:52:57;;;;;;;22.60;14.33;;;8.30;99.90;;;;;;5008376;28;20694;-49
2022/11/13 11:56:04;;;;;;;21.40;12.87;;;8.40;99.90;;;;;;4997591;28;20227;-53
2022/11/13 11:59:12;;;;;;;21.17;13.03;;;8.40;99.90;;;;;;5010113;28;20258;-51
2022/11/13 12:02:32;;;;;;;16.40;11.50;;;8.40;99.90;;;;;;5006568;28;20765;-49
2022/11/13 12:05:23;;;;;;;20.03;11.73;;;8.40;99.90;;;;;;5017783;28;20215;-48
2022/11/13 12:08:18;;;;;;;18.70;11.40;;;8.50;99.90;;;;;;5006753;28;20964;-50
2022/11/13 12:11:14;;;;;;;18.70;11.40;;;8.40;99.90;;;;;;4994862;28;20351;-50
2022/11/13 12:14:07;;;;;;;20.53;11.77;;;8.50;99.90;;;;;;5002793;28;20250;-49
2022/11/13 12:17:05;;;;;;;85.37;19.20;;;8.50;99.90;;;;;;4999744;28;20297;-46
2022/11/13 12:20:02;;;;;;;122.00;24.73;;;8.50;99.90;;;;;;4998035;28;20277;-45
2022/11/13 12:22:56;;;;;;;17.43;11.70;;;8.60;99.90;;;;;;5004016;28;20427;-54
2022/11/13 12:25:48;;;;;;;16.10;10.40;;;8.60;99.90;;;;;;5008433;28;20239;-54
2022/11/13 12:28:41;;;;;;;19.77;10.50;;;8.60;99.90;;;;;;5008098;28;20239;-50
2022/11/13 12:31:41;;;;;;;15.83;10.47;;;8.60;99.90;;;;;;5015230;28;20346;-50
2022/11/13 12:34:30;;;;;;;16.60;10.43;;;8.60;99.90;;;;;;5015872;28;20243;-50
2022/11/13 12:37:22;;;;;;;14.73;10.77;;;8.70;99.90;;;;;;5001475;28;20344;-50
2022/11/13 12:40:18;;;;;;;16.70;10.40;;;8.70;99.90;;;;;;5003726;28;20215;-50
2022/11/13 12:43:27;;;;;;;17.87;10.53;;;8.70;99.90;;;;;;4996044;28;20289;-52
2022/11/13 12:46:14;;;;;;;16.90;12.07;;;8.70;99.90;;;;;;5005749;28;20246;-49
2022/11/13 12:49:00;;;;;;;15.20;10.93;;;8.70;99.90;;;;;;5001794;28;20207;-51
2022/11/13 12:51:54;;;;;;;16.30;9.80;;;8.60;99.90;;;;;;5021643;28;20583;-50
2022/11/13 12:54:40;;;;;;;15.10;10.17;;;8.60;99.90;;;;;;5015396;28;20235;-48
2022/11/13 12:57:26;;;;;;;12.73;9.80;;;8.70;99.90;;;;;;4995096;28;20266;-51
2022/11/13 13:00:22;;;;;;;15.97;11.17;;;8.70;99.90;;;;;;5002118;28;20227;-52
2022/11/13 13:03:22;;;;;;;14.13;10.13;;;8.70;99.90;;;;;;5008040;28;20228;-53
2022/11/13 13:06:28;;;;;;;15.80;10.97;;;8.70;99.90;;;;;;5014223;28;20223;-52
2022/11/13 13:09:37;;;;;;;11.67;8.83;;;8.60;99.90;;;;;;5013090;28;20227;-52
2022/11/13 13:12:37;;;;;;;14.70;9.07;;;8.70;99.90;;;;;;5015818;28;20219;-52
2022/11/13 13:15:31;;;;;;;12.47;9.50;;;8.80;99.90;;;;;;5008005;28;20687;-54
2022/11/13 13:18:28;;;;;;;13.37;9.23;;;8.70;99.90;;;;;;5018299;28;20215;-52
2022/11/13 13:21:16;;;;;;;10.73;9.37;;;8.70;99.90;;;;;;5013743;28;20220;-44
2022/11/13 13:24:08;;;;;;;15.10;10.17;;;8.80;99.90;;;;;;5009820;28;21011;-46
2022/11/13 13:26:54;;;;;;;16.53;9.30;;;8.80;99.90;;;;;;5010022;28;20281;-49
2022/11/13 13:29:41;;;;;;;14.87;10.57;;;8.80;99.90;;;;;;4997183;28;20211;-46
2022/11/13 13:32:35;;;;;;;17.77;10.23;;;8.80;99.90;;;;;;5009063;28;20219;-46
2022/11/13 13:35:29;;;;;;;16.07;10.13;;;8.80;99.90;;;;;;5006769;28;20584;-50
2022/11/13 13:38:21;;;;;;;14.73;10.33;;;8.80;99.90;;;;;;5012288;28;20243;-45
2022/11/13 13:41:15;;;;;;;11.00;9.17;;;8.80;99.90;;;;;;5014657;28;20239;-48
2022/11/13 13:44:24;;;;;;;15.33;10.77;;;8.80;99.90;;;;;;4997188;28;20262;-49
2022/11/13 13:47:17;;;;;;;14.07;9.70;;;8.80;99.90;;;;;;5000184;28;20215;-50
2022/11/13 13:50:06;;;;;;;16.10;11.10;;;8.80;99.90;;;;;;5011524;28;20207;-48
2022/11/13 13:52:53;;;;;;;16.37;10.43;;;8.80;99.90;;;;;;5001541;28;20223;-45
2022/11/13 13:55:47;;;;;;;13.90;9.33;;;8.80;99.90;;;;;;5009721;28;20234;-48
2022/11/13 13:58:35;;;;;;;13.30;10.23;;;8.80;99.90;;;;;;5004971;28;20211;-46
2022/11/13 14:01:27;;;;;;;12.97;9.70;;;8.80;99.90;;;;;;4988296;28;20327;-46
2022/11/13 14:04:17;;;;;;;20.17;11.93;;;8.80;99.90;;;;;;5010643;28;20652;-49
2022/11/13 14:07:03;;;;;;;14.47;10.67;;;8.80;99.90;;;;;;5012087;28;20226;-45
2022/11/13 14:10:03;;;;;;;15.40;11.53;;;8.80;99.90;;;;;;5004158;28;20746;-45
2022/11/13 14:12:49;;;;;;;15.17;11.90;;;8.80;99.90;;;;;;5007850;28;20223;-48
2022/11/13 14:15:35;;;;;;;21.87;13.63;;;8.80;99.90;;;;;;4990838;28;20234;-47
2022/11/13 14:18:21;;;;;;;74.73;29.80;;;8.80;99.90;;;;;;4997737;28;20316;-48
2022/11/13 14:21:14;;;;;;;20.23;14.30;;;8.80;99.90;;;;;;5017710;28;20331;-47
2022/11/13 14:24:02;;;;;;;22.67;14.50;;;8.80;99.90;;;;;;5017117;28;20334;-49
2022/11/13 14:26:51;;;;;;;20.23;13.97;;;8.80;99.90;;;;;;5011206;28;20206;-49
2022/11/13 14:29:40;;;;;;;23.47;15.43;;;8.90;99.90;;;;;;5001492;28;20215;-46